createdAt,value
2023-02-25T00:01:12.014Z,1.10
2023-02-25T00:04:03.228Z,1.20
2023-02-25T00:06:52.835Z,1.10
2023-02-25T00:09:42.065Z,1.20
2023-02-25T00:12:31.639Z,1.30
2023-02-25T00:15:21.111Z,1.20
2023-02-25T00:18:10.386Z,1.10
2023-02-25T00:21:01.916Z,1.20
2023-02-25T00:23:53.794Z,1.10
2023-02-25T00:26:43.371Z,1.40
2023-02-25T00:29:33.204Z,1.00
2023-02-25T00:32:24.844Z,1.10
2023-02-25T00:35:14.208Z,1.10
2023-02-25T00:38:15.725Z,1.40
2023-02-25T00:41:12.922Z,1.30
2023-02-25T00:44:03.465Z,1.30
2023-02-25T00:46:54.227Z,1.30
2023-02-25T00:49:43.981Z,1.47
2023-02-25T00:52:34.884Z,1.10
2023-02-25T00:55:31.004Z,1.50
2023-02-25T00:58:21.431Z,1.63
2023-02-25T01:01:19.237Z,1.30
2023-02-25T01:04:10.118Z,1.57
2023-02-25T01:07:02.748Z,1.40
2023-02-25T01:09:56.852Z,1.53
2023-02-25T01:12:48.477Z,1.50
2023-02-25T01:15:38.345Z,1.87
2023-02-25T01:18:28.017Z,1.50
2023-02-25T01:21:19.059Z,1.83
2023-02-25T01:24:12.819Z,1.53
2023-02-25T01:27:04.439Z,1.43
2023-02-25T01:29:55.759Z,1.23
2023-02-25T01:32:45.055Z,1.57
2023-02-25T01:35:39.213Z,1.47
2023-02-25T01:38:30.434Z,1.60
2023-02-25T01:41:20.440Z,1.37
2023-02-25T01:44:14.250Z,1.47
2023-02-25T01:47:07.366Z,1.37
2023-02-25T01:49:57.415Z,1.80
2023-02-25T01:52:47.229Z,1.87
2023-02-25T01:55:37.116Z,1.97
2023-02-25T01:58:27.207Z,2.60
2023-02-25T02:01:22.096Z,1.63
2023-02-25T02:04:16.532Z,1.60
2023-02-25T02:07:06.481Z,1.70
2023-02-25T02:09:57.372Z,2.00
2023-02-25T02:12:48.069Z,1.97
2023-02-25T02:15:40.833Z,2.13
2023-02-25T02:18:34.707Z,2.10
2023-02-25T02:21:55.112Z,2.10
2023-02-25T02:25:22.005Z,2.30
2023-02-25T02:28:41.290Z,2.20
2023-02-25T02:31:46.146Z,2.20
2023-02-25T02:34:43.643Z,2.10
2023-02-25T02:37:39.244Z,1.90
2023-02-25T02:40:40.572Z,2.13
2023-02-25T02:43:39.462Z,2.00
2023-02-25T02:46:30.966Z,1.80
2023-02-25T02:49:25.417Z,2.00
2023-02-25T02:52:20.021Z,2.20
2023-02-25T02:55:13.569Z,1.70
2023-02-25T02:58:07.263Z,2.30
2023-02-25T03:01:02.645Z,2.10
2023-02-25T03:03:55.066Z,1.77
2023-02-25T03:07:09.664Z,1.70
2023-02-25T03:10:03.756Z,2.30
2023-02-25T03:12:56.892Z,3.10
2023-02-25T03:15:46.752Z,2.40
2023-02-25T03:18:39.404Z,2.03
2023-02-25T03:21:34.352Z,2.27
2023-02-25T03:24:30.902Z,2.07
2023-02-25T03:27:29.593Z,2.00
2023-02-25T03:30:29.149Z,2.70
2023-02-25T03:33:23.595Z,1.93
2023-02-25T03:36:15.462Z,2.27
2023-02-25T03:39:09.202Z,2.00
2023-02-25T03:42:02.269Z,1.67
2023-02-25T03:44:55.428Z,1.93
2023-02-25T03:47:45.632Z,1.90
2023-02-25T03:50:39.724Z,2.03
2023-02-25T03:53:35.052Z,2.17
2023-02-25T03:57:14.536Z,1.80
2023-02-25T04:00:15.907Z,2.10
2023-02-25T04:03:06.638Z,2.03
2023-02-25T04:05:56.697Z,1.60
2023-02-25T04:08:46.383Z,1.93
2023-02-25T04:11:36.345Z,2.60
2023-02-25T04:14:27.596Z,2.30
2023-02-25T04:17:17.867Z,1.87
2023-02-25T04:20:08.716Z,2.03
2023-02-25T04:22:59.371Z,2.13
2023-02-25T04:25:49.234Z,2.23
2023-02-25T04:28:38.839Z,1.70
2023-02-25T04:31:30.552Z,2.13
2023-02-25T04:34:21.066Z,2.30
2023-02-25T04:37:10.765Z,2.27
2023-02-25T04:40:05.299Z,2.23
2023-02-25T04:42:55.227Z,2.70
2023-02-25T04:45:49.717Z,1.97
2023-02-25T04:48:42.083Z,2.40
2023-02-25T04:51:31.637Z,2.20
2023-02-25T04:54:21.847Z,2.27
2023-02-25T05:02:23.290Z,2.37
2023-02-25T05:05:14.515Z,2.17
2023-02-25T05:08:05.422Z,2.20
2023-02-25T05:11:01.258Z,1.80
2023-02-25T05:13:51.153Z,2.00
2023-02-25T05:16:40.925Z,2.07
2023-02-25T05:19:30.513Z,2.40
2023-02-25T05:22:23.150Z,2.27
2023-02-25T05:25:13.172Z,2.10
2023-02-25T05:28:04.107Z,2.07
2023-02-25T05:30:55.696Z,1.83
2023-02-25T05:33:46.396Z,1.83
2023-02-25T05:36:36.276Z,2.00
2023-02-25T05:39:27.687Z,2.80
2023-02-25T05:42:29.951Z,2.50
2023-02-25T05:45:26.913Z,2.80
2023-02-25T05:48:17.084Z,3.90
2023-02-25T05:51:08.632Z,2.87
2023-02-25T05:53:58.817Z,2.50
2023-02-25T05:56:52.803Z,4.80
2023-02-25T05:59:42.585Z,2.77
2023-02-25T06:02:34.473Z,3.50
2023-02-25T06:05:24.788Z,2.50
2023-02-25T06:08:14.796Z,2.77
2023-02-25T06:11:07.955Z,3.07
2023-02-25T06:14:01.611Z,2.43
2023-02-25T06:16:51.943Z,2.37
2023-02-25T06:19:42.104Z,2.27
2023-02-25T06:22:31.798Z,2.30
2023-02-25T06:25:21.674Z,2.80
2023-02-25T06:28:12.355Z,1.83
2023-02-25T06:31:04.327Z,2.07
2023-02-25T06:34:01.445Z,2.20
2023-02-25T06:36:51.488Z,2.80
2023-02-25T06:39:43.383Z,2.43
2023-02-25T06:42:32.943Z,1.93
2023-02-25T06:45:24.381Z,2.00
2023-02-25T06:48:15.587Z,1.97
2023-02-25T06:51:09.447Z,1.87
2023-02-25T06:53:59.975Z,2.20
2023-02-25T06:56:50.463Z,2.53
2023-02-25T06:59:39.942Z,1.70
2023-02-25T07:02:29.470Z,1.70
2023-02-25T07:05:20.347Z,1.93
2023-02-25T07:08:09.758Z,1.60
2023-02-25T07:11:14.573Z,1.60
2023-02-25T07:14:05.533Z,1.83
2023-02-25T07:16:55.091Z,1.90
2023-02-25T07:19:45.213Z,1.67
2023-02-25T07:22:36.003Z,1.97
2023-02-25T07:25:26.129Z,1.30
2023-02-25T07:28:16.598Z,1.53
2023-02-25T07:31:11.727Z,1.50
2023-02-25T07:34:03.863Z,1.40
2023-02-25T07:36:53.504Z,1.60
2023-02-25T07:39:46.918Z,1.47
2023-02-25T07:42:37.282Z,2.37
2023-02-25T07:45:28.732Z,1.27
2023-02-25T07:48:18.395Z,1.90
2023-02-25T07:51:09.188Z,1.53
2023-02-25T07:53:59.389Z,1.63
2023-02-25T07:56:52.316Z,1.70
2023-02-25T07:59:41.994Z,1.60
2023-02-25T08:02:31.617Z,1.60
2023-02-25T08:05:24.256Z,1.80
2023-02-25T08:08:14.323Z,1.70
2023-02-25T08:11:08.013Z,1.47
2023-02-25T08:14:01.889Z,1.83
2023-02-25T08:16:53.544Z,1.40
2023-02-25T08:19:43.698Z,1.37
2023-02-25T08:22:33.377Z,1.27
2023-02-25T08:25:23.474Z,1.23
2023-02-25T08:28:15.077Z,1.57
2023-02-25T08:31:08.692Z,1.87
2023-02-25T08:33:59.716Z,1.50
2023-02-25T08:36:50.290Z,1.70
2023-02-25T08:39:43.131Z,1.83
2023-02-25T08:42:36.174Z,1.33
2023-02-25T08:45:26.287Z,1.47
2023-02-25T08:48:17.397Z,1.30
2023-02-25T08:51:08.850Z,1.80
2023-02-25T08:53:59.005Z,1.30
2023-02-25T08:56:49.286Z,1.50
2023-02-25T08:59:40.077Z,1.40
2023-02-25T09:02:30.090Z,1.50
2023-02-25T09:05:21.750Z,1.63
2023-02-25T09:08:11.368Z,1.50
2023-02-25T09:11:01.265Z,1.20
2023-02-25T09:13:51.274Z,1.37
2023-02-25T09:16:41.018Z,1.27
2023-02-25T09:19:31.139Z,1.10
2023-02-25T09:22:22.672Z,1.57
2023-02-25T09:25:14.225Z,1.23
2023-02-25T09:28:04.337Z,1.33
2023-02-25T09:30:54.591Z,1.30
2023-02-25T09:33:44.521Z,1.10
2023-02-25T09:36:34.907Z,1.40
2023-02-25T09:39:25.866Z,2.17
2023-02-25T09:42:18.699Z,1.37
2023-02-25T09:45:14.915Z,1.40
2023-02-25T09:48:07.428Z,1.50
2023-02-25T09:51:10.995Z,1.43
2023-02-25T09:54:22.349Z,1.47
2023-02-25T09:57:25.467Z,1.10
2023-02-25T10:00:19.151Z,1.63
2023-02-25T10:03:14.268Z,1.03
2023-02-25T10:06:05.391Z,1.00
2023-02-25T10:09:01.407Z,1.30
2023-02-25T10:11:53.716Z,1.27
2023-02-25T10:14:57.456Z,1.20
2023-02-25T10:18:03.193Z,1.33
2023-02-25T10:21:08.023Z,1.40
2023-02-25T10:24:10.966Z,1.20
2023-02-25T10:27:05.810Z,1.17
2023-02-25T10:29:58.819Z,1.10
2023-02-25T10:32:49.208Z,1.20
2023-02-25T10:35:40.494Z,1.23
2023-02-25T10:38:29.970Z,1.27
2023-02-25T10:41:23.078Z,1.30
2023-02-25T10:44:14.640Z,1.37
2023-02-25T10:47:06.455Z,1.40
2023-02-25T10:50:14.290Z,1.70
2023-02-25T10:53:05.704Z,1.57
2023-02-25T10:55:55.883Z,1.30
2023-02-25T10:58:48.216Z,1.30
2023-02-25T11:01:40.446Z,1.70
2023-02-25T11:04:34.827Z,1.63
2023-02-25T11:07:27.108Z,1.20
2023-02-25T11:10:18.585Z,1.20
2023-02-25T11:13:10.565Z,1.10
2023-02-25T11:16:02.314Z,1.10
2023-02-25T11:18:54.685Z,1.00
2023-02-25T11:21:45.648Z,1.10
2023-02-25T11:24:36.448Z,1.17
2023-02-25T11:27:38.993Z,1.00
2023-02-25T11:30:33.703Z,1.10
2023-02-25T11:33:25.834Z,1.10
2023-02-25T11:36:15.169Z,1.27
2023-02-25T11:39:16.793Z,1.00
2023-02-25T11:42:24.590Z,1.00
2023-02-25T11:45:18.791Z,1.00
2023-02-25T11:48:18.945Z,1.33
2023-02-25T11:51:18.758Z,1.10
2023-02-25T11:54:25.313Z,1.00
2023-02-25T11:57:18.212Z,1.27
2023-02-25T12:00:22.799Z,1.20
2023-02-25T12:03:24.898Z,1.00
2023-02-25T12:06:29.951Z,1.00
2023-02-25T12:09:44.635Z,1.20
2023-02-25T12:12:57.275Z,1.00
2023-02-25T12:16:19.009Z,1.00
2023-02-25T12:19:32.836Z,0.90
2023-02-25T12:22:48.946Z,1.20
2023-02-25T12:25:45.412Z,1.20
2023-02-25T12:28:51.994Z,1.00
2023-02-25T12:32:11.196Z,1.20
2023-02-25T12:35:44.524Z,1.10
2023-02-25T12:39:01.832Z,1.20
2023-02-25T12:42:01.678Z,1.60
2023-02-25T12:45:03.580Z,1.20
2023-02-25T12:48:11.648Z,1.10
2023-02-25T12:51:16.721Z,1.23
2023-02-25T12:54:16.114Z,1.00
2023-02-25T12:57:22.131Z,1.63
2023-02-25T13:00:43.472Z,1.27
2023-02-25T13:03:41.268Z,1.00
2023-02-25T13:06:43.618Z,1.10
2023-02-25T13:10:08.587Z,1.47
2023-02-25T13:13:07.642Z,1.23
2023-02-25T13:16:04.695Z,1.00
2023-02-25T13:19:02.838Z,1.20
2023-02-25T13:22:05.484Z,1.00
2023-02-25T13:25:01.474Z,1.10
2023-02-25T13:28:06.216Z,1.13
2023-02-25T13:30:59.467Z,1.40
2023-02-25T13:34:01.552Z,1.17
2023-02-25T13:37:03.304Z,1.27
2023-02-25T13:40:01.731Z,1.30
2023-02-25T13:43:01.509Z,3.23
2023-02-25T13:46:08.132Z,1.77
2023-02-25T13:49:10.310Z,1.10
2023-02-25T13:52:09.876Z,1.10
2023-02-25T13:55:23.899Z,1.20
2023-02-25T13:58:30.492Z,1.20
2023-02-25T14:01:52.846Z,1.10
2023-02-25T14:05:17.168Z,1.10
2023-02-25T14:08:26.783Z,1.07
2023-02-25T14:11:29.920Z,1.10
2023-02-25T14:14:33.005Z,1.30
2023-02-25T14:17:36.564Z,1.23
2023-02-25T14:20:39.061Z,1.20
2023-02-25T14:23:46.429Z,1.30
2023-02-25T14:26:42.567Z,1.10
2023-02-25T14:29:44.350Z,1.10
2023-02-25T14:32:50.178Z,1.00
2023-02-25T14:36:02.380Z,1.17
2023-02-25T14:39:06.088Z,1.07
2023-02-25T14:42:02.930Z,1.07
2023-02-25T14:44:56.879Z,1.00
2023-02-25T14:47:54.911Z,1.00
2023-02-25T14:50:48.062Z,1.10
2023-02-25T14:53:51.589Z,0.90
2023-02-25T14:56:50.070Z,1.13
2023-02-25T14:59:59.896Z,1.30
2023-02-25T15:03:22.890Z,1.17
2023-02-25T15:06:24.648Z,1.00
2023-02-25T15:09:33.294Z,1.07
2023-02-25T15:12:37.188Z,1.10
2023-02-25T15:15:36.551Z,1.17
2023-02-25T15:18:54.389Z,1.30
2023-02-25T15:21:47.170Z,1.00
2023-02-25T15:24:41.776Z,1.10
2023-02-25T15:27:49.861Z,1.10
2023-02-25T15:31:09.661Z,1.10
2023-02-25T15:34:44.895Z,1.17
2023-02-25T15:37:37.321Z,1.10
2023-02-25T15:40:51.139Z,1.13
2023-02-25T15:43:43.766Z,1.10
2023-02-25T15:46:42.799Z,1.20
2023-02-25T15:49:34.773Z,1.40
2023-02-25T15:52:57.935Z,1.30
2023-02-25T15:55:47.983Z,1.10
2023-02-25T15:58:52.889Z,1.17
2023-02-25T16:01:44.026Z,1.30
2023-02-25T16:04:46.679Z,1.27
2023-02-25T16:07:37.795Z,1.17
2023-02-25T16:10:35.055Z,1.10
2023-02-25T16:13:28.811Z,1.30
2023-02-25T16:16:18.847Z,1.10
2023-02-25T16:19:12.224Z,1.30
2023-02-25T16:22:03.780Z,1.30
2023-02-25T16:24:54.712Z,1.10
2023-02-25T16:27:54.585Z,1.10
2023-02-25T16:30:48.548Z,1.07
2023-02-25T16:33:46.210Z,1.10
2023-02-25T16:36:38.481Z,1.40
2023-02-25T16:39:28.240Z,1.20
2023-02-25T16:42:19.733Z,1.20
2023-02-25T16:45:25.470Z,1.43
2023-02-25T16:48:19.861Z,1.27
2023-02-25T16:51:11.595Z,1.17
2023-02-25T16:54:06.559Z,1.40
2023-02-25T16:57:00.141Z,1.20
2023-02-25T16:59:51.177Z,1.40
2023-02-25T17:02:48.032Z,1.40
2023-02-25T17:05:39.769Z,1.50
2023-02-25T17:08:29.904Z,1.20
2023-02-25T17:11:22.896Z,1.40
2023-02-25T17:14:13.033Z,1.30
2023-02-25T17:17:02.893Z,1.37
2023-02-25T17:19:54.061Z,1.30
2023-02-25T17:22:46.302Z,1.33
2023-02-25T17:25:40.000Z,1.37
2023-02-25T17:28:31.318Z,1.87
2023-02-25T17:31:27.282Z,2.00
2023-02-25T17:34:19.255Z,1.57
2023-02-25T17:37:13.650Z,1.70
2023-02-25T17:40:04.796Z,1.70
2023-02-25T17:43:18.943Z,1.60
2023-02-25T17:46:18.602Z,1.50
2023-02-25T17:49:21.560Z,1.37
2023-02-25T17:52:20.448Z,1.40
2023-02-25T17:55:23.638Z,1.30
2023-02-25T17:58:23.885Z,1.50
2023-02-25T18:01:25.826Z,1.37
2023-02-25T18:04:25.376Z,1.77
2023-02-25T18:07:32.797Z,1.60
2023-02-25T18:10:49.966Z,1.70
2023-02-25T18:13:40.160Z,1.40
2023-02-25T18:16:45.090Z,1.57
2023-02-25T18:19:39.479Z,1.60
2023-02-25T18:22:33.969Z,1.60
2023-02-25T18:25:31.733Z,1.63
2023-02-25T18:28:23.119Z,1.40
2023-02-25T18:31:14.841Z,1.40
2023-02-25T18:34:04.827Z,1.33
2023-02-25T18:36:54.762Z,1.60
2023-02-25T18:39:46.579Z,1.40
2023-02-25T18:42:36.004Z,1.67
2023-02-25T18:45:27.065Z,1.20
2023-02-25T18:48:17.868Z,1.43
2023-02-25T18:51:12.872Z,1.30
2023-02-25T18:54:02.236Z,1.47
2023-02-25T18:56:53.559Z,1.50
2023-02-25T18:59:43.442Z,1.30
2023-02-25T19:02:34.581Z,1.47
2023-02-25T19:05:25.691Z,1.50
2023-02-25T19:08:16.858Z,1.70
2023-02-25T19:11:07.512Z,1.53
2023-02-25T19:13:59.312Z,1.70
2023-02-25T19:16:52.360Z,1.77
2023-02-25T19:19:46.779Z,1.83
2023-02-25T19:22:37.586Z,2.20
2023-02-25T19:25:29.332Z,1.60
2023-02-25T19:28:19.066Z,1.30
2023-02-25T19:31:09.979Z,1.40
2023-02-25T19:34:00.113Z,1.67
2023-02-25T19:36:49.972Z,1.37
2023-02-25T19:39:39.716Z,1.40
2023-02-25T19:42:30.347Z,1.70
2023-02-25T19:45:22.486Z,1.80
2023-02-25T19:48:13.911Z,1.60
2023-02-25T19:51:07.297Z,1.43
2023-02-25T19:53:57.271Z,1.50
2023-02-25T19:56:46.804Z,1.40
2023-02-25T19:59:36.488Z,1.50
2023-02-25T20:02:26.398Z,1.40
2023-02-25T20:05:17.846Z,1.57
2023-02-25T20:08:17.323Z,1.63
2023-02-25T20:11:10.178Z,1.90
2023-02-25T20:14:02.008Z,1.40
2023-02-25T20:16:52.219Z,1.60
2023-02-25T20:19:51.413Z,1.70
2023-02-25T20:22:43.548Z,1.50
2023-02-25T20:25:33.641Z,1.60
2023-02-25T20:28:24.442Z,1.70
2023-02-25T20:31:15.805Z,1.60
2023-02-25T20:34:14.578Z,1.50
2023-02-25T20:37:07.202Z,1.93
2023-02-25T20:40:00.179Z,1.70
2023-02-25T20:42:50.153Z,1.60
2023-02-25T20:45:40.790Z,1.60
2023-02-25T20:48:32.276Z,1.90
2023-02-25T20:51:22.580Z,1.50
2023-02-25T20:54:12.598Z,1.60
2023-02-25T20:57:04.642Z,1.50
2023-02-25T20:59:55.161Z,1.97
2023-02-25T21:02:45.074Z,1.47
2023-02-25T21:05:35.126Z,1.37
2023-02-25T21:08:25.034Z,1.70
2023-02-25T21:11:15.408Z,1.93
2023-02-25T21:14:10.540Z,1.30
2023-02-25T21:17:01.446Z,1.47
2023-02-25T21:19:52.845Z,1.47
2023-02-25T21:22:42.887Z,1.90
2023-02-25T21:25:34.047Z,1.57
2023-02-25T21:28:24.216Z,1.60
2023-02-25T21:31:17.519Z,1.50
2023-02-25T21:34:09.370Z,1.57
2023-02-25T21:36:59.852Z,1.77
2023-02-25T21:39:49.629Z,1.50
2023-02-25T21:42:39.417Z,1.50
2023-02-25T21:45:29.690Z,1.80
2023-02-25T21:48:21.240Z,1.50
2023-02-25T21:51:16.541Z,1.40
2023-02-25T21:54:06.541Z,1.43
2023-02-25T21:56:56.308Z,1.50
2023-02-25T21:59:46.500Z,1.67
2023-02-25T22:02:36.180Z,1.40
2023-02-25T22:05:27.850Z,1.40
2023-02-25T22:08:17.637Z,1.87
2023-02-25T22:11:08.193Z,1.30
2023-02-25T22:13:57.605Z,1.60
2023-02-25T22:16:47.491Z,1.50
2023-02-25T22:19:38.052Z,1.33
2023-02-25T22:22:29.467Z,1.47
2023-02-25T22:25:19.986Z,1.27
2023-02-25T22:28:09.781Z,1.60
2023-02-25T22:30:59.932Z,1.30
2023-02-25T22:33:52.202Z,1.40
2023-02-25T22:36:42.432Z,1.40
2023-02-25T22:39:34.001Z,1.30
2023-02-25T22:42:24.082Z,1.23
2023-02-25T22:45:14.276Z,1.47
2023-02-25T22:48:03.958Z,1.40
2023-02-25T22:50:53.541Z,1.60
2023-02-25T22:53:43.314Z,1.37
2023-02-25T22:56:35.207Z,1.80
2023-02-25T22:59:25.956Z,1.43
2023-02-25T23:02:15.740Z,1.40
2023-02-25T23:05:06.226Z,1.30
2023-02-25T23:07:56.318Z,1.30
2023-02-25T23:10:46.435Z,1.50
2023-02-25T23:13:38.134Z,1.37
2023-02-25T23:16:31.528Z,1.30
2023-02-25T23:19:21.869Z,1.47
2023-02-25T23:22:18.650Z,1.50
2023-02-25T23:25:10.571Z,1.40
2023-02-25T23:28:00.564Z,1.20
2023-02-25T23:30:54.658Z,1.63
2023-02-25T23:33:44.609Z,1.30
2023-02-25T23:36:34.767Z,1.30
2023-02-25T23:39:25.024Z,1.40
2023-02-25T23:42:15.063Z,1.50
2023-02-25T23:45:07.140Z,1.60
2023-02-25T23:47:58.302Z,1.63
2023-02-25T23:50:48.119Z,1.23
2023-02-25T23:53:37.906Z,1.37
2023-02-25T23:56:28.488Z,1.40
2023-02-25T23:59:18.686Z,1.40
